Time;durP1;ratioP1;P1;durP2;ratioP2;P2;SDS_P1;SDS_P2;PMS_P1;PMS_P2;Temp;Humidity;BMP_temperature;BMP_pressure;BME280_temperature;BME280_humidity;BME280_pressure;Samples;Min_cycle;Max_cycle;Signal;HPM_P1;HPM_P2
2024/02/29 00:02:02;;;;;;;60.47;32.15;;;;;;;;;;5022524;28;20025;-65
2024/02/29 00:04:28;;;;;;;65.18;30.90;;;7.70;99.90;;;;;;5022296;28;20037;-65
2024/02/29 00:07:01;;;;;;;61.30;30.95;;;7.80;99.90;;;;;;5034361;28;20041;-65
2024/02/29 00:09:26;;;;;;;60.00;30.90;;;7.80;99.90;;;;;;5042084;28;20325;-65
2024/02/29 00:11:52;;;;;;;63.95;31.55;;;7.70;99.90;;;;;;5042230;28;20143;-66
2024/02/29 00:14:18;;;;;;;70.35;32.65;;;;;;;;;;5042150;28;20025;-65
2024/02/29 00:16:47;;;;;;;56.92;30.77;;;7.80;99.90;;;;;;5042269;28;20075;-65
2024/02/29 00:19:13;;;;;;;63.20;30.10;;;;;;;;;;5041977;28;20068;-65
2024/02/29 00:21:39;;;;;;;60.75;29.25;;;7.80;99.90;;;;;;5041776;28;20257;-65
2024/02/29 00:24:05;;;;;;;59.67;30.40;;;7.90;99.90;;;;;;5041948;28;20091;-65
2024/02/29 00:26:30;;;;;;;58.42;31.02;;;7.90;99.90;;;;;;5042010;28;20542;-65
2024/02/29 00:28:56;;;;;;;56.00;29.30;;;;;;;;;;5041923;28;20033;-65
2024/02/29 00:31:25;;;;;;;61.45;30.80;;;8.00;99.90;;;;;;5041647;28;20032;-65
2024/02/29 00:33:51;;;;;;;66.68;30.08;;;7.80;99.90;;;;;;5041436;28;20061;-69
2024/02/29 00:36:17;;;;;;;66.72;30.95;;;7.80;99.90;;;;;;5041714;28;20056;-65
2024/02/29 00:38:44;;;;;;;59.40;29.80;;;7.50;99.90;;;;;;5041561;28;20053;-65
2024/02/29 00:41:10;;;;;;;60.63;30.73;;;;;;;;;;5041416;28;20369;-64
2024/02/29 00:43:36;;;;;;;61.42;31.60;;;;;;;;;;5041672;28;20124;-65
2024/02/29 00:46:02;;;;;;;67.00;31.35;;;;;;;;;;5041583;28;20025;-65
2024/02/29 00:48:28;;;;;;;63.25;30.80;;;7.80;99.90;;;;;;5040502;28;20017;-64
2024/02/29 00:50:54;;;;;;;57.70;30.40;;;;;;;;;;5041438;28;20040;-65
2024/02/29 00:53:20;;;;;;;56.83;28.70;;;;;;;;;;5041233;28;20028;-64
2024/02/29 00:55:46;;;;;;;64.00;32.35;;;;;;;;;;5041137;28;20341;-64
2024/02/29 00:58:12;;;;;;;60.40;30.80;;;;;;;;;;5041094;28;20088;-64
2024/02/29 01:00:38;;;;;;;60.38;31.80;;;;;;;;;;5041137;28;20177;-64
2024/02/29 01:03:04;;;;;;;67.15;31.77;;;;;;;;;;5025356;28;20421;-64
2024/02/29 01:05:30;;;;;;;67.03;33.28;;;;;;;;;;5021692;28;20032;-67
2024/02/29 01:07:56;;;;;;;63.85;30.95;;;;;;;;;;5041714;28;20025;-66
2024/02/29 01:10:23;;;;;;;67.22;31.08;;;;;;;;;;5044729;28;20041;-65
2024/02/29 01:12:50;;;;;;;62.30;32.33;;;7.50;99.90;;;;;;5040956;28;20017;-66
2024/02/29 01:15:16;;;;;;;67.72;31.58;;;7.50;99.90;;;;;;5039823;28;20033;-68
2024/02/29 01:17:42;;;;;;;63.00;31.77;;;7.40;99.90;;;;;;5032298;28;20025;-66
2024/02/29 01:20:09;;;;;;;63.38;32.65;;;7.40;99.90;;;;;;5035038;28;20309;-66
2024/02/29 01:22:37;;;;;;;62.35;32.33;;;7.40;99.90;;;;;;5036745;28;20022;-66
2024/02/29 01:25:04;;;;;;;60.17;29.70;;;7.40;99.90;;;;;;5021086;28;20022;-66
2024/02/29 01:27:30;;;;;;;64.80;30.23;;;7.40;99.90;;;;;;5021116;28;20025;-66
2024/02/29 01:29:55;;;;;;;68.13;31.10;;;;;;;;;;5039353;28;20051;-66
2024/02/29 01:32:21;;;;;;;60.17;30.95;;;6.90;99.90;;;;;;5040751;28;20026;-66
2024/02/29 01:34:48;;;;;;;69.72;32.15;;;7.20;99.90;;;;;;5038801;28;20387;-66
2024/02/29 01:37:14;;;;;;;57.50;28.25;;;7.20;99.90;;;;;;5040459;28;20021;-65
2024/02/29 01:39:41;;;;;;;58.75;29.45;;;;;;;;;;5040415;28;20043;-66
2024/02/29 01:42:07;;;;;;;64.57;30.15;;;7.50;99.90;;;;;;5040484;28;20025;-66
2024/02/29 01:44:33;;;;;;;58.00;29.65;;;;;;;;;;5040489;28;20317;-66
2024/02/29 01:47:01;;;;;;;60.88;29.63;;;;;;;;;;5039077;28;20340;-66
2024/02/29 01:49:27;;;;;;;68.80;31.85;;;;;;;;;;5040463;28;20044;-66
2024/02/29 01:51:53;;;;;;;64.65;28.65;;;;;;;;;;5040207;28;20313;-68
2024/02/29 01:54:19;;;;;;;64.28;32.20;;;;;;;;;;5040091;28;20563;-66
2024/02/29 01:56:45;;;;;;;65.57;31.05;;;7.10;99.90;;;;;;5040469;28;20186;-66
2024/02/29 01:59:13;;;;;;;61.10;30.42;;;7.20;99.90;;;;;;5040092;28;20041;-66
2024/02/29 02:01:39;;;;;;;64.20;30.20;;;;;;;;;;5035920;28;20357;-66
2024/02/29 02:04:05;;;;;;;64.28;31.27;;;7.20;99.90;;;;;;5020614;28;20183;-65
2024/02/29 02:06:31;;;;;;;62.72;29.70;;;7.10;99.90;;;;;;5037764;28;20352;-65
2024/02/29 02:08:57;;;;;;;64.18;31.15;;;;;;;;;;5039941;28;20037;-65
2024/02/29 02:11:24;;;;;;;59.00;30.05;;;7.10;99.90;;;;;;5040052;28;20048;-65
2024/02/29 02:13:50;;;;;;;56.13;28.55;;;;;;;;;;5040189;28;20029;-65
2024/02/29 02:16:16;;;;;;;67.38;30.33;;;;;;;;;;5039802;28;20009;-65
2024/02/29 02:18:41;;;;;;;69.53;31.38;;;7.30;99.90;;;;;;5039689;28;20022;-65
2024/02/29 02:21:07;;;;;;;60.75;30.42;;;;;;;;;;5039635;28;20080;-66
2024/02/29 02:23:33;;;;;;;59.53;28.77;;;;;;;;;;5038187;28;20025;-65
2024/02/29 02:26:00;;;;;;;60.22;29.20;;;7.30;99.90;;;;;;5039877;28;20030;-66
2024/02/29 02:28:26;;;;;;;57.17;29.83;;;7.20;99.90;;;;;;5039096;28;20369;-65
2024/02/29 02:30:52;;;;;;;55.95;28.90;;;7.10;99.90;;;;;;5038935;28;20014;-65
2024/02/29 02:33:19;;;;;;;59.88;29.63;;;7.30;99.90;;;;;;5039571;28;20072;-66
2024/02/29 02:35:45;;;;;;;61.97;30.02;;;;;;;;;;5039344;28;20026;-65
2024/02/29 02:38:11;;;;;;;57.78;31.08;;;7.50;99.90;;;;;;5039472;28;20313;-65
2024/02/29 02:40:37;;;;;;;59.38;30.73;;;7.30;99.90;;;;;;5039346;28;20101;-65
2024/02/29 02:43:03;;;;;;;70.65;31.15;;;7.20;99.90;;;;;;5038069;28;20025;-64
2024/02/29 02:45:29;;;;;;;62.30;28.42;;;;;;;;;;5039372;28;20037;-64
2024/02/29 02:47:55;;;;;;;56.08;29.10;;;7.30;99.90;;;;;;5039367;28;20111;-63
2024/02/29 02:50:21;;;;;;;60.88;29.27;;;7.50;99.90;;;;;;5039372;28;20345;-64
2024/02/29 02:52:46;;;;;;;62.05;29.90;;;7.40;99.90;;;;;;5039322;28;20317;-64
2024/02/29 02:55:13;;;;;;;59.05;30.35;;;;;;;;;;5039299;28;20055;-65
2024/02/29 02:57:39;;;;;;;58.70;28.42;;;;;;;;;;5039405;28;20032;-65
2024/02/29 03:00:06;;;;;;;61.08;30.85;;;7.30;99.90;;;;;;5039530;28;20037;-64
2024/02/29 03:02:33;;;;;;;58.45;27.95;;;7.60;99.90;;;;;;5028052;28;20045;-67
2024/02/29 03:04:59;;;;;;;62.13;28.08;;;;;;;;;;5019897;28;20038;-64
2024/02/29 03:07:25;;;;;;;62.78;29.85;;;;;;;;;;5019615;28;20041;-64
2024/02/29 03:09:51;;;;;;;56.15;28.88;;;;;;;;;;5019583;28;20156;-64
2024/02/29 03:12:17;;;;;;;65.95;30.88;;;;;;;;;;5022958;28;20021;-66
2024/02/29 03:14:43;;;;;;;60.67;29.27;;;7.00;99.90;;;;;;5042597;28;20018;-64
2024/02/29 03:17:09;;;;;;;63.60;30.20;;;;;;;;;;5043322;28;20147;-64
2024/02/29 03:19:35;;;;;;;59.80;28.25;;;;;;;;;;5043306;28;20041;-64
2024/02/29 03:22:01;;;;;;;59.53;28.40;;;;;;;;;;5042938;28;20218;-64
2024/02/29 03:24:27;;;;;;;65.43;30.15;;;7.30;99.90;;;;;;5043385;28;20029;-63
2024/02/29 03:26:53;;;;;;;59.58;29.58;;;;;;;;;;5043283;28;20052;-64
2024/02/29 03:29:19;;;;;;;54.97;27.65;;;;;;;;;;5042768;28;20404;-64
2024/02/29 03:31:45;;;;;;;56.85;29.83;;;7.00;99.90;;;;;;5042702;28;20018;-65
2024/02/29 03:34:11;;;;;;;58.83;29.95;;;;;;;;;;5041455;28;20068;-65
2024/02/29 03:36:37;;;;;;;61.00;27.35;;;6.80;99.90;;;;;;5042920;28;20022;-65
2024/02/29 03:39:07;;;;;;;54.78;26.58;;;;;;;;;;5042821;28;20067;-64
2024/02/29 03:41:33;;;;;;;55.40;28.75;;;6.80;99.90;;;;;;5042831;28;20024;-65
2024/02/29 03:43:59;;;;;;;59.35;30.55;;;6.80;99.90;;;;;;5037725;28;20021;-67
2024/02/29 03:46:25;;;;;;;59.58;28.80;;;6.60;99.90;;;;;;5027909;28;20030;-65
2024/02/29 03:48:51;;;;;;;61.50;29.70;;;;;;;;;;5023541;28;20360;-65
2024/02/29 03:51:18;;;;;;;64.93;29.00;;;6.70;99.90;;;;;;5028636;28;20063;-64
2024/02/29 03:53:44;;;;;;;63.28;29.83;;;6.60;99.90;;;;;;5042867;28;20025;-66
2024/02/29 03:56:10;;;;;;;67.32;29.95;;;7.00;99.90;;;;;;5042671;28;20322;-66
2024/02/29 03:58:35;;;;;;;62.63;31.75;;;6.70;99.90;;;;;;5042778;28;20036;-65
2024/02/29 04:01:01;;;;;;;62.85;30.52;;;;;;;;;;5042787;28;20667;-65
2024/02/29 04:03:27;;;;;;;61.30;29.45;;;;;;;;;;5042477;28;20216;-67
2024/02/29 04:05:53;;;;;;;60.47;29.10;;;;;;;;;;5042701;28;20009;-66
2024/02/29 04:08:19;;;;;;;65.55;29.80;;;;;;;;;;5042341;28;20036;-65
2024/02/29 04:10:48;;;;;;;66.68;29.55;;;;;;;;;;5048910;28;20194;-64
2024/02/29 04:13:14;;;;;;;65.50;30.30;;;6.50;99.90;;;;;;5062183;28;20339;-66
2024/02/29 04:15:40;;;;;;;66.32;28.70;;;;;;;;;;5062012;28;20021;-66
2024/02/29 04:18:06;;;;;;;68.80;32.17;;;6.80;99.90;;;;;;5062104;28;20324;-67
2024/02/29 04:20:32;;;;;;;66.05;29.02;;;;;;;;;;5060980;28;20043;-66
2024/02/29 04:22:58;;;;;;;63.13;28.42;;;;;;;;;;5040765;28;20436;-66
2024/02/29 04:25:26;;;;;;;58.42;27.23;;;6.60;99.90;;;;;;5042400;28;20075;-67
2024/02/29 04:27:52;;;;;;;62.15;30.20;;;;;;;;;;5042346;28;20060;-65
2024/02/29 04:30:19;;;;;;;63.50;31.05;;;;;;;;;;5042001;28;20040;-64
2024/02/29 04:32:45;;;;;;;68.10;29.88;;;6.50;99.90;;;;;;5042050;28;20037;-65
2024/02/29 04:35:11;;;;;;;60.28;30.02;;;;;;;;;;5041594;28;20146;-64
2024/02/29 04:37:39;;;;;;;63.08;30.58;;;6.50;99.90;;;;;;5041735;28;20017;-65
2024/02/29 04:40:07;;;;;;;56.88;28.92;;;6.40;99.90;;;;;;5041539;28;20037;-64
2024/02/29 04:42:33;;;;;;;63.35;28.83;;;;;;;;;;5041870;28;20353;-66
2024/02/29 04:44:59;;;;;;;62.28;29.73;;;6.40;99.90;;;;;;5041954;28;20048;-65
2024/02/29 04:47:25;;;;;;;64.57;29.17;;;;;;;;;;5041613;28;20018;-68
2024/02/29 04:49:51;;;;;;;61.60;28.63;;;;;;;;;;5041504;28;20036;-66
2024/02/29 04:52:17;;;;;;;56.40;28.08;;;6.20;99.90;;;;;;5041559;28;20099;-66
2024/02/29 04:54:44;;;;;;;51.75;26.33;;;;;;;;;;5041424;28;20021;-65
2024/02/29 04:57:10;;;;;;;62.38;28.52;;;;;;;;;;5041280;28;20092;-65
2024/02/29 04:59:36;;;;;;;57.65;28.35;;;;;;;;;;5041729;28;20033;-65
2024/02/29 05:02:02;;;;;;;60.88;28.38;;;;;;;;;;5034188;28;20049;-65
2024/02/29 05:04:28;;;;;;;69.78;30.27;;;;;;;;;;5021882;28;20030;-65
2024/02/29 05:06:54;;;;;;;68.45;32.22;;;;;;;;;;5021697;28;20064;-67
2024/02/29 05:09:20;;;;;;;66.13;29.48;;;;;;;;;;5021563;28;20345;-67
2024/02/29 05:11:47;;;;;;;64.25;30.65;;;;;;;;;;5023793;28;20036;-66
2024/02/29 05:14:13;;;;;;;71.63;31.38;;;;;;;;;;5021101;28;20072;-65
2024/02/29 05:16:39;;;;;;;65.68;32.28;;;;;;;;;;5020470;28;20026;-64
2024/02/29 05:19:05;;;;;;;71.13;32.17;;;;;;;;;;5020791;28;20041;-64
2024/02/29 05:21:31;;;;;;;71.28;30.20;;;;;;;;;;5020989;28;20025;-63
2024/02/29 05:23:57;;;;;;;76.75;32.10;;;;;;;;;;5021147;28;20030;-66
2024/02/29 05:26:23;;;;;;;64.30;29.35;;;6.20;99.90;;;;;;5021052;28;20302;-64
2024/02/29 05:28:49;;;;;;;64.03;29.65;;;;;;;;;;5024589;28;20032;-64
2024/02/29 05:31:15;;;;;;;62.75;31.05;;;;;;;;;;5032889;28;20317;-65
2024/02/29 05:33:41;;;;;;;66.95;29.48;;;;;;;;;;5022673;28;20075;-63
2024/02/29 05:36:07;;;;;;;58.03;27.48;;;6.00;99.90;;;;;;5021223;28;20080;-63
2024/02/29 05:38:33;;;;;;;65.40;28.45;;;;;;;;;;5020969;28;20257;-64
2024/02/29 05:41:02;;;;;;;60.67;29.95;;;6.10;99.90;;;;;;5034705;28;20047;-65
2024/02/29 05:43:28;;;;;;;55.47;27.63;;;6.10;99.90;;;;;;5040331;28;20017;-64
2024/02/29 05:45:54;;;;;;;57.08;27.33;;;6.00;99.90;;;;;;5037445;28;20045;-65
2024/02/29 05:48:20;;;;;;;59.17;28.65;;;;;;;;;;5020790;28;20060;-64
2024/02/29 05:50:46;;;;;;;59.97;27.52;;;;;;;;;;5020494;28;20022;-63
2024/02/29 05:53:11;;;;;;;60.63;29.90;;;6.00;99.90;;;;;;5020677;28;20064;-63
2024/02/29 05:55:37;;;;;;;60.05;28.67;;;6.00;99.90;;;;;;5020561;28;20217;-63
2024/02/29 05:58:03;;;;;;;60.13;28.67;;;;;;;;;;5020510;28;20254;-64
2024/02/29 06:00:30;;;;;;;66.70;29.77;;;;;;;;;;5020113;28;20061;-64
2024/02/29 06:02:56;;;;;;;68.63;29.10;;;6.10;99.90;;;;;;5034990;28;20029;-64
2024/02/29 06:05:23;;;;;;;63.88;29.27;;;;;;;;;;5039966;28;20029;-64
2024/02/29 06:07:48;;;;;;;65.15;30.20;;;6.10;99.90;;;;;;5039819;28;20025;-63
2024/02/29 06:10:14;;;;;;;66.78;31.20;;;6.20;99.90;;;;;;5026028;28;20294;-63
2024/02/29 06:12:40;;;;;;;69.82;30.23;;;;;;;;;;5019983;28;20164;-63
2024/02/29 06:15:07;;;;;;;66.47;30.33;;;6.30;99.90;;;;;;5019426;28;20032;-64
2024/02/29 06:17:33;;;;;;;69.53;31.17;;;6.20;99.90;;;;;;5018957;28;20057;-63
2024/02/29 06:19:59;;;;;;;66.85;29.05;;;;;;;;;;5024263;28;20041;-63
2024/02/29 06:22:24;;;;;;;63.50;29.05;;;6.40;99.90;;;;;;5038361;28;20021;-65
2024/02/29 06:24:50;;;;;;;66.68;30.30;;;6.60;99.90;;;;;;5039470;28;20033;-64
2024/02/29 06:27:22;;;;;;;63.88;28.35;;;6.40;99.90;;;;;;5030081;28;20402;-64
2024/02/29 06:29:48;;;;;;;58.42;28.85;;;6.50;99.90;;;;;;5040493;28;20025;-63
2024/02/29 06:32:14;;;;;;;63.50;30.58;;;;;;;;;;5024164;28;20076;-64
2024/02/29 06:34:40;;;;;;;61.20;30.70;;;6.70;99.90;;;;;;5028656;28;20057;-64
2024/02/29 06:37:07;;;;;;;63.22;30.42;;;;;;;;;;5026930;28;20032;-64
2024/02/29 06:39:33;;;;;;;65.75;29.60;;;6.90;99.90;;;;;;5040257;28;20041;-64
2024/02/29 06:41:59;;;;;;;66.80;30.88;;;6.90;99.90;;;;;;5040938;28;20025;-66
2024/02/29 06:44:25;;;;;;;61.28;29.30;;;;;;;;;;5041205;28;20025;-63
2024/02/29 06:46:51;;;;;;;62.08;28.75;;;;;;;;;;5040741;28;20578;-63
2024/02/29 06:49:22;;;;;;;62.20;29.50;;;;;;;;;;5039841;28;20031;-63
2024/02/29 06:51:48;;;;;;;62.20;29.88;;;;;;;;;;5039464;28;20195;-63
2024/02/29 06:54:14;;;;;;;70.30;30.23;;;7.40;99.90;;;;;;5039434;28;20333;-63
2024/02/29 06:56:40;;;;;;;67.30;31.92;;;7.50;99.90;;;;;;5039742;28;20032;-63
2024/02/29 06:59:06;;;;;;;61.22;30.17;;;;;;;;;;5025230;28;20341;-63
2024/02/29 07:01:32;;;;;;;59.72;30.30;;;7.70;99.90;;;;;;5019931;28;20030;-63
2024/02/29 07:04:00;;;;;;;53.40;29.20;;;7.80;99.90;;;;;;5020037;28;20018;-64
2024/02/29 07:06:26;;;;;;;54.53;27.73;;;;;;;;;;5019936;28;20026;-64
2024/02/29 07:08:52;;;;;;;59.05;29.10;;;;;;;;;;5019603;28;20029;-63
2024/02/29 07:11:19;;;;;;;59.30;29.95;;;8.10;99.90;;;;;;5037711;28;20025;-63
2024/02/29 07:13:46;;;;;;;63.10;30.20;;;8.20;99.90;;;;;;5032365;28;20030;-64
2024/02/29 07:16:13;;;;;;;59.05;31.77;;;;;;;;;;5022658;28;20034;-65
2024/02/29 07:18:39;;;;;;;58.97;28.92;;;8.30;99.90;;;;;;5019880;28;20018;-64
2024/02/29 07:21:05;;;;;;;56.78;29.17;;;;;;;;;;5019632;28;20396;-64
2024/02/29 07:23:31;;;;;;;55.15;29.17;;;;;;;;;;5021721;28;20030;-64
2024/02/29 07:25:58;;;;;;;54.33;30.00;;;8.50;99.90;;;;;;5021723;28;20029;-65
2024/02/29 07:28:23;;;;;;;54.63;28.75;;;8.60;99.90;;;;;;5027510;28;20083;-64
2024/02/29 07:30:49;;;;;;;54.13;28.98;;;;;;;;;;5038999;28;20302;-65
2024/02/29 07:33:16;;;;;;;51.65;27.88;;;8.70;99.90;;;;;;5024583;28;20289;-68
2024/02/29 07:35:42;;;;;;;54.92;27.92;;;8.80;99.90;;;;;;5020504;28;20058;-65
2024/02/29 07:38:08;;;;;;;53.90;27.75;;;;;;;;;;5020336;28;20053;-65
2024/02/29 07:40:34;;;;;;;46.80;28.25;;;;;;;;;;5022713;28;20088;-65
2024/02/29 07:43:01;;;;;;;53.50;28.92;;;9.10;99.90;;;;;;5020321;28;20314;-64
2024/02/29 07:45:27;;;;;;;51.08;28.15;;;;;;;;;;5039670;28;20032;-64
2024/02/29 07:47:53;;;;;;;55.05;28.92;;;9.40;99.90;;;;;;5040472;28;20367;-64
2024/02/29 07:50:19;;;;;;;53.53;27.80;;;9.30;99.90;;;;;;5040472;28;20021;-65
2024/02/29 07:52:45;;;;;;;49.72;28.83;;;9.40;99.90;;;;;;5040177;28;20021;-65
2024/02/29 07:55:14;;;;;;;55.35;27.50;;;;;;;;;;5039871;28;20117;-64
2024/02/29 07:57:40;;;;;;;49.55;27.33;;;10.00;99.90;;;;;;5042073;28;20246;-66
2024/02/29 08:00:07;;;;;;;50.20;27.25;;;9.70;99.90;;;;;;5043241;28;20045;-65
2024/02/29 08:02:33;;;;;;;53.75;29.05;;;9.70;99.90;;;;;;5040197;28;20032;-65
2024/02/29 08:04:59;;;;;;;48.05;27.67;;;;;;;;;;5043175;28;20092;-66
2024/02/29 08:07:25;;;;;;;48.95;25.80;;;9.70;99.90;;;;;;5025165;28;20018;-67
2024/02/29 08:09:51;;;;;;;51.42;28.55;;;9.80;99.90;;;;;;5023498;28;20051;-66
2024/02/29 08:12:17;;;;;;;47.53;26.90;;;9.80;99.90;;;;;;5023394;28;20366;-69
2024/02/29 08:14:44;;;;;;;51.72;28.02;;;;;;;;;;5021989;28;20097;-67
2024/02/29 08:17:10;;;;;;;49.35;27.92;;;10.30;99.90;;;;;;5021981;28;20057;-66
2024/02/29 08:19:36;;;;;;;49.38;27.00;;;9.90;99.90;;;;;;5033006;28;20037;-67
2024/02/29 08:22:02;;;;;;;54.17;29.00;;;10.00;99.90;;;;;;5042695;28;20329;-67
2024/02/29 08:24:28;;;;;;;49.10;27.98;;;;;;;;;;5041482;28;20029;-67
2024/02/29 08:26:54;;;;;;;50.53;28.23;;;10.40;99.90;;;;;;5042955;28;20029;-71
2024/02/29 08:29:20;;;;;;;49.28;26.80;;;10.40;99.90;;;;;;5042445;28;20083;-67
2024/02/29 08:31:46;;;;;;;50.53;27.75;;;10.60;99.90;;;;;;5041231;28;20029;-67
2024/02/29 08:34:12;;;;;;;43.67;25.88;;;;;;;;;;5041942;28;20341;-67
2024/02/29 08:36:38;;;;;;;45.92;26.75;;;11.00;99.90;;;;;;5041971;28;20029;-66
2024/02/29 08:39:03;;;;;;;30.42;17.65;;;10.90;99.90;;;;;;5041696;28;20115;-66
2024/02/29 08:41:29;;;;;;;29.50;15.70;;;;;;;;;;5042931;28;20034;-66
2024/02/29 08:43:55;;;;;;;29.40;17.88;;;11.80;99.90;;;;;;5041198;28;20398;-66
2024/02/29 08:46:24;;;;;;;39.75;22.42;;;11.60;99.90;;;;;;5035249;28;20064;-65
2024/02/29 08:48:49;;;;;;;21.50;12.27;;;12.00;99.90;;;;;;5020523;28;20119;-66
2024/02/29 08:51:15;;;;;;;19.52;11.32;;;12.10;99.90;;;;;;5021782;28;20081;-65
2024/02/29 08:53:40;;;;;;;20.95;10.45;;;12.50;99.90;;;;;;5032302;28;20269;-66
2024/02/29 08:56:06;;;;;;;27.30;11.55;;;12.70;99.90;;;;;;5041530;28;20014;-66
2024/02/29 08:58:32;;;;;;;17.08;10.45;;;12.90;99.90;;;;;;5040912;28;20379;-65
2024/02/29 09:00:58;;;;;;;20.20;11.30;;;12.90;99.90;;;;;;5041224;28;20128;-66
2024/02/29 09:03:23;;;;;;;24.00;11.23;;;13.10;99.50;;;;;;5022445;28;20076;-67
2024/02/29 09:05:50;;;;;;;19.70;9.55;;;13.50;97.80;;;;;;5019802;28;20097;-66
2024/02/29 09:08:15;;;;;;;17.08;9.57;;;13.50;96.40;;;;;;5021679;28;20109;-66
2024/02/29 09:10:41;;;;;;;35.53;20.80;;;13.80;96.60;;;;;;5031593;28;20036;-66
2024/02/29 09:13:07;;;;;;;34.33;21.50;;;13.90;97.50;;;;;;5040858;28;20116;-65
2024/02/29 09:15:33;;;;;;;36.90;19.50;;;13.50;98.60;;;;;;5040839;28;20033;-66
2024/02/29 09:17:59;;;;;;;35.90;21.67;;;13.40;91.60;;;;;;5040574;28;20028;-66
2024/02/29 09:20:27;;;;;;;38.60;21.67;;;13.40;92.00;;;;;;5040637;28;20075;-68
2024/02/29 09:22:54;;;;;;;35.95;20.77;;;13.50;99.50;;;;;;5040307;28;20329;-66
2024/02/29 09:25:19;;;;;;;31.25;20.70;;;13.50;92.60;;;;;;5040623;28;20326;-67
2024/02/29 09:27:45;;;;;;;22.95;13.10;;;13.60;99.20;;;;;;5040146;28;20034;-65
2024/02/29 09:30:14;;;;;;;21.80;13.05;;;13.70;98.10;;;;;;5040219;28;20096;-65
2024/02/29 09:32:40;;;;;;;26.02;16.63;;;14.00;97.00;;;;;;5040436;28;20025;-66
2024/02/29 09:35:06;;;;;;;17.08;9.32;;;14.00;90.20;;;;;;5024388;28;20125;-65
2024/02/29 09:37:32;;;;;;;16.35;8.80;;;14.20;87.50;;;;;;5022680;28;20048;-66
2024/02/29 09:39:58;;;;;;;14.63;9.20;;;14.40;83.10;;;;;;5020327;28;20249;-66
2024/02/29 09:42:26;;;;;;;15.88;9.38;;;14.60;80.60;;;;;;5020564;28;20420;-67
2024/02/29 09:44:53;;;;;;;23.35;9.18;;;15.10;86.80;;;;;;5032526;28;20025;-65
2024/02/29 09:47:20;;;;;;;16.38;8.75;;;15.00;76.90;;;;;;5033460;28;20069;-65
2024/02/29 09:49:47;;;;;;;16.40;9.23;;;15.30;74.80;;;;;;5022767;28;20030;-66
2024/02/29 09:52:13;;;;;;;14.85;8.73;;;;;;;;;;5020065;28;20032;-67
2024/02/29 09:54:40;;;;;;;17.13;9.85;;;15.50;71.30;;;;;;5020293;28;20037;-65
2024/02/29 09:57:10;;;;;;;19.33;8.98;;;15.50;70.50;;;;;;5030952;28;20033;-65
2024/02/29 09:59:38;;;;;;;17.80;8.70;;;15.90;83.20;;;;;;5039912;28;20039;-65
2024/02/29 10:02:05;;;;;;;20.52;8.73;;;15.60;83.20;;;;;;5030980;28;20065;-65
2024/02/29 10:04:31;;;;;;;14.18;8.25;;;15.70;68.30;;;;;;5020206;28;20590;-68
2024/02/29 10:06:57;;;;;;;15.73;8.65;;;15.90;67.50;;;;;;5019781;28;20125;-66
2024/02/29 10:09:23;;;;;;;15.75;9.57;;;16.00;66.40;;;;;;5018749;28;20366;-66
2024/02/29 10:11:48;;;;;;;13.55;7.75;;;16.10;66.10;;;;;;5045655;28;20349;-67
2024/02/29 10:14:22;;;;;;;13.43;8.02;;;16.20;65.60;;;;;;5041175;28;20021;-67
2024/02/29 10:16:54;;;;;;;15.63;8.52;;;16.20;78.50;;;;;;5038640;28;20029;-66
2024/02/29 10:19:21;;;;;;;16.75;8.77;;;16.80;78.30;;;;;;5027848;28;20045;-66
2024/02/29 10:21:47;;;;;;;14.70;8.65;;;16.80;62.30;;;;;;5019903;28;20022;-67
2024/02/29 10:24:13;;;;;;;14.85;8.93;;;16.90;63.10;;;;;;5019552;28;20358;-66
2024/02/29 10:26:40;;;;;;;16.35;8.50;;;17.20;75.90;;;;;;5022021;28;20108;-66
2024/02/29 10:29:08;;;;;;;15.93;8.57;;;17.40;76.10;;;;;;5020188;28;20030;-66
2024/02/29 10:31:34;;;;;;;21.88;10.20;;;17.10;61.80;;;;;;5024399;28;20054;-66
2024/02/29 10:34:00;;;;;;;18.38;9.50;;;17.20;61.00;;;;;;5019493;28;20050;-66
2024/02/29 10:36:25;;;;;;;18.95;7.95;;;17.20;61.60;;;;;;5033107;28;20030;-68
2024/02/29 10:38:51;;;;;;;14.70;8.60;;;17.40;59.40;;;;;;5021991;28;20026;-66
2024/02/29 10:41:18;;;;;;;16.80;8.50;;;17.40;60.10;;;;;;5019730;28;20029;-66
2024/02/29 10:43:47;;;;;;;15.95;8.20;;;17.40;59.80;;;;;;5019842;28;20022;-65
2024/02/29 10:46:15;;;;;;;14.88;8.73;;;17.50;59.10;;;;;;5019678;28;20153;-66
2024/02/29 10:48:57;;;;;;;17.35;8.95;;;17.50;58.90;;;;;;5019912;28;20041;-67
2024/02/29 10:51:29;;;;;;;14.10;7.25;;;17.50;58.80;;;;;;5019619;28;20018;-66
2024/02/29 10:54:09;;;;;;;17.00;8.40;;;17.60;58.80;;;;;;5019505;28;20029;-67
2024/02/29 10:56:37;;;;;;;16.73;8.75;;;17.70;57.70;;;;;;5019388;28;20018;-66
2024/02/29 10:59:07;;;;;;;14.45;8.00;;;17.70;56.30;;;;;;5019275;28;20033;-66
2024/02/29 11:01:34;;;;;;;19.60;8.45;;;17.80;57.30;;;;;;5019129;28;20037;-66
2024/02/29 11:04:00;;;;;;;17.23;8.25;;;17.80;57.60;;;;;;5019527;28;20030;-66
2024/02/29 11:06:38;;;;;;;17.00;8.55;;;17.90;57.40;;;;;;5019177;28;20026;-70
2024/02/29 11:09:08;;;;;;;13.23;7.97;;;18.40;70.60;;;;;;5024501;28;20324;-67
2024/02/29 11:11:34;;;;;;;11.32;8.05;;;16.60;56.40;;;;;;5038846;28;20100;-66
2024/02/29 11:14:05;;;;;;;15.65;8.57;;;18.10;56.50;;;;;;5038673;28;20052;-66
2024/02/29 11:16:37;;;;;;;17.05;8.63;;;18.10;70.50;;;;;;5038834;28;20040;-65
2024/02/29 11:19:03;;;;;;;16.92;8.00;;;18.00;57.00;;;;;;5037273;28;20097;-65
2024/02/29 11:21:29;;;;;;;11.93;8.13;;;18.10;69.90;;;;;;5037268;28;20042;-65
2024/02/29 11:24:04;;;;;;;16.38;8.25;;;18.00;56.10;;;;;;5038787;28;20028;-65
2024/02/29 11:26:37;;;;;;;18.75;8.60;;;18.10;69.60;;;;;;5038244;28;20028;-65
2024/02/29 11:29:16;;;;;;;16.45;9.50;;;17.90;56.20;;;;;;5037584;28;20128;-65
2024/02/29 11:31:56;;;;;;;17.45;9.30;;;17.50;70.20;;;;;;5038629;28;20037;-64
2024/02/29 11:34:22;;;;;;;18.00;9.40;;;17.60;55.90;;;;;;5042407;28;20332;-64
2024/02/29 11:36:51;;;;;;;15.88;9.15;;;17.50;56.40;;;;;;5042765;28;20380;-65
2024/02/29 11:39:21;;;;;;;17.33;8.25;;;17.40;71.50;;;;;;5042683;28;20029;-65
2024/02/29 11:41:58;;;;;;;17.77;8.15;;;17.60;57.30;;;;;;5042757;28;20071;-65
2024/02/29 11:44:24;;;;;;;17.45;7.95;;;17.80;70.50;;;;;;5042610;28;20067;-65
2024/02/29 11:46:50;;;;;;;15.68;8.18;;;18.10;70.40;;;;;;5040787;28;20428;-65
2024/02/29 11:49:17;;;;;;;12.35;7.88;;;18.00;69.50;;;;;;5041918;28;20301;-65
2024/02/29 11:51:44;;;;;;;12.80;7.85;;;18.50;57.20;;;;;;5035893;28;20103;-65
2024/02/29 11:54:14;;;;;;;22.23;8.25;;;18.10;55.70;;;;;;5042835;28;20212;-65
2024/02/29 11:56:40;;;;;;;13.90;8.38;;;18.10;55.50;;;;;;5042881;28;20305;-65
2024/02/29 11:59:09;;;;;;;15.27;8.20;;;18.40;68.30;;;;;;5042507;28;20014;-65
2024/02/29 12:01:35;;;;;;;;;;;18.50;55.20;;;;;;5033323;28;20246;-65
2024/02/29 12:04:01;;;;;;;18.02;7.65;;;18.60;55.20;;;;;;5022858;28;19908;-65
2024/02/29 12:06:27;;;;;;;16.45;8.13;;;18.80;56.00;;;;;;5022522;28;20349;-65
2024/02/29 12:08:54;;;;;;;16.77;7.47;;;19.20;67.20;;;;;;5025934;28;20026;-66
2024/02/29 12:11:20;;;;;;;15.48;7.00;;;19.40;65.90;;;;;;5041980;28;20022;-66
2024/02/29 12:13:46;;;;;;;13.90;7.35;;;19.20;53.40;;;;;;5041894;28;20053;-66
2024/02/29 12:16:13;;;;;;;14.60;7.32;;;19.30;53.10;;;;;;5042451;28;20085;-66
2024/02/29 12:18:38;;;;;;;17.45;7.20;;;19.40;53.10;;;;;;5041509;28;20037;-66
2024/02/29 12:21:05;;;;;;;11.65;7.70;;;19.80;64.70;;;;;;5042062;28;20452;-66
2024/02/29 12:23:34;;;;;;;14.18;7.65;;;19.80;52.10;;;;;;5042018;28;20017;-67
2024/02/29 12:26:17;;;;;;;14.50;7.25;;;19.90;51.70;;;;;;5042008;28;20033;-66
2024/02/29 12:28:50;;;;;;;13.52;7.65;;;20.10;50.90;;;;;;5042099;28;20092;-66
2024/02/29 12:31:17;;;;;;;12.88;7.43;;;20.10;50.70;;;;;;5041727;28;20029;-66
2024/02/29 12:33:44;;;;;;;13.23;8.27;;;20.10;50.60;;;;;;5041801;28;20618;-67
2024/02/29 12:36:12;;;;;;;17.38;7.45;;;20.30;50.50;;;;;;5041896;28;20029;-65
2024/02/29 12:38:39;;;;;;;10.65;5.78;;;20.50;50.40;;;;;;5042000;28;20033;-67
2024/02/29 12:41:06;;;;;;;14.07;6.47;;;20.70;49.10;;;;;;5041751;28;20104;-66
2024/02/29 12:43:33;;;;;;;11.60;7.00;;;20.70;48.60;;;;;;5037130;28;20025;-67
2024/02/29 12:45:59;;;;;;;14.93;7.55;;;20.80;47.90;;;;;;5021835;28;20052;-66
2024/02/29 12:48:24;;;;;;;13.00;6.75;;;20.80;47.80;;;;;;5022093;28;20026;-68
2024/02/29 12:50:51;;;;;;;10.82;6.97;;;20.90;47.80;;;;;;5025716;28;20361;-67
2024/02/29 12:53:17;;;;;;;10.80;6.72;;;20.90;47.40;;;;;;5041742;28;20020;-66
2024/02/29 12:55:44;;;;;;;11.82;7.07;;;21.20;46.90;;;;;;5041435;28;20029;-66
2024/02/29 12:58:14;;;;;;;14.77;6.47;;;21.30;46.40;;;;;;5041712;28;20021;-66
2024/02/29 13:00:40;;;;;;;12.48;7.15;;;21.50;46.40;;;;;;5038893;28;20048;-67
2024/02/29 13:03:07;;;;;;;15.07;7.85;;;22.20;46.30;;;;;;5021713;28;20026;-67
2024/02/29 13:05:33;;;;;;;16.35;8.93;;;24.40;44.20;;;;;;5021771;28;20045;-67